createdAt,value
2024-04-16T00:02:27.288Z,101392.94
2024-04-16T00:04:55.222Z,101406.78
2024-04-16T00:07:22.926Z,101405.16
2024-04-16T00:09:50.738Z,101400.03
2024-04-16T00:12:18.382Z,101408.59
2024-04-16T00:15:04.814Z,101413.16
2024-04-16T00:17:34.773Z,101404.91
2024-04-16T00:20:02.821Z,101410.09
2024-04-16T00:22:30.555Z,101412.25
2024-04-16T00:24:58.335Z,101409.84
2024-04-16T00:27:26.989Z,101401.47
2024-04-16T00:29:54.588Z,101395.94
2024-04-16T00:32:24.963Z,101388.47
2024-04-16T00:34:54.083Z,101395.25
2024-04-16T00:37:21.851Z,101383.81
2024-04-16T00:39:49.744Z,101388.19
2024-04-16T00:42:17.347Z,101389.09
2024-04-16T00:44:45.105Z,101395.88
2024-04-16T00:47:14.269Z,101388.06
2024-04-16T00:49:42.002Z,101383.81
2024-04-16T00:52:10.340Z,101375.13
2024-04-16T00:54:38.075Z,101370.91
2024-04-16T00:57:06.795Z,101374.38
2024-04-16T00:59:35.677Z,101372.06
2024-04-16T01:02:03.342Z,101374.91
2024-04-16T01:04:31.189Z,101380.19
2024-04-16T01:06:59.012Z,101364.66
2024-04-16T01:09:26.800Z,101369.00
2024-04-16T01:11:59.176Z,101363.00
2024-04-16T01:14:27.152Z,101365.63
2024-04-16T01:16:55.990Z,101358.72
2024-04-16T01:19:24.198Z,101356.06
2024-04-16T01:21:51.990Z,101347.38
2024-04-16T01:24:22.238Z,101357.03
2024-04-16T01:26:50.775Z,101356.22
2024-04-16T01:29:18.428Z,101358.94
2024-04-16T01:31:46.171Z,101361.28
2024-04-16T01:34:13.906Z,101359.56
2024-04-16T01:36:41.733Z,101359.47
2024-04-16T01:39:09.431Z,101360.19
2024-04-16T01:41:37.216Z,101363.50
2024-04-16T01:44:05.357Z,101374.69
2024-04-16T01:46:33.010Z,101359.72
2024-04-16T01:49:02.538Z,101359.78
2024-04-16T01:51:30.608Z,101358.00
2024-04-16T01:53:58.199Z,101348.84
2024-04-16T01:56:25.848Z,101346.50
2024-04-16T01:58:54.716Z,101346.59
2024-04-16T02:01:22.409Z,101350.88
2024-04-16T02:03:50.287Z,101355.72
2024-04-16T02:06:18.050Z,101350.34
2024-04-16T02:08:45.642Z,101357.31
2024-04-16T02:11:13.292Z,101356.41
2024-04-16T02:13:41.121Z,101354.38
2024-04-16T02:16:10.579Z,101349.97
2024-04-16T02:18:38.991Z,101352.59
2024-04-16T02:21:06.712Z,101355.38
2024-04-16T02:23:34.290Z,101346.38
2024-04-16T02:26:01.908Z,101349.97
2024-04-16T02:28:29.542Z,101347.34
2024-04-16T02:30:57.175Z,101347.28
2024-04-16T02:33:24.862Z,101351.66
2024-04-16T02:35:52.507Z,101336.41
2024-04-16T02:38:20.052Z,101340.97
2024-04-16T02:40:47.774Z,101333.69
2024-04-16T02:43:15.534Z,101345.72
2024-04-16T02:45:43.208Z,101344.75
2024-04-16T02:48:10.812Z,101338.59
2024-04-16T02:50:39.190Z,101335.06
2024-04-16T02:53:06.742Z,101334.34
2024-04-16T02:55:35.504Z,101331.56
2024-04-16T02:58:03.305Z,101334.81
2024-04-16T03:00:32.126Z,101339.28
2024-04-16T03:02:59.838Z,101335.09
2024-04-16T03:05:27.543Z,101337.91
2024-04-16T03:07:55.203Z,101329.97
2024-04-16T03:10:23.279Z,101336.84
2024-04-16T03:12:53.982Z,101338.22
2024-04-16T03:15:21.912Z,101327.78
2024-04-16T03:17:52.498Z,101336.31
2024-04-16T03:20:20.151Z,101346.50
2024-04-16T03:22:47.802Z,101337.72
2024-04-16T03:25:15.648Z,101330.72
2024-04-16T03:27:43.362Z,101338.72
2024-04-16T03:30:11.056Z,101335.19
2024-04-16T03:32:38.800Z,101335.97
2024-04-16T03:35:06.798Z,101331.00
2024-04-16T03:37:36.726Z,101329.13
2024-04-16T03:40:06.580Z,101324.72
2024-04-16T03:42:34.285Z,101321.91
2024-04-16T03:45:02.058Z,101315.91
2024-04-16T03:47:30.547Z,101314.88
2024-04-16T03:49:58.216Z,101308.19
2024-04-16T03:52:26.643Z,101309.25
2024-04-16T03:54:54.820Z,101309.47
2024-04-16T03:57:22.437Z,101300.91
2024-04-16T04:00:08.936Z,101307.91
2024-04-16T04:02:39.299Z,101311.44
2024-04-16T04:05:07.600Z,101317.28
2024-04-16T04:07:35.615Z,101316.28
2024-04-16T04:10:05.368Z,101329.28
2024-04-16T04:12:35.972Z,101322.97
2024-04-16T04:15:05.635Z,101329.69
2024-04-16T04:17:33.307Z,101334.94
2024-04-16T04:20:02.051Z,101338.38
2024-04-16T04:22:29.714Z,101342.66
2024-04-16T04:24:58.204Z,101348.09
2024-04-16T04:27:25.898Z,101341.38
2024-04-16T04:29:55.194Z,101354.41
2024-04-16T04:32:22.898Z,101344.13
2024-04-16T04:34:50.645Z,101338.00
2024-04-16T04:37:18.349Z,101349.38
2024-04-16T04:39:45.957Z,101343.88
2024-04-16T04:42:13.671Z,101349.94
2024-04-16T04:44:41.328Z,101354.06
2024-04-16T04:47:09.022Z,101350.53
2024-04-16T04:49:37.010Z,101348.09
2024-04-16T04:52:04.902Z,101350.84
2024-04-16T04:54:32.558Z,101353.41
2024-04-16T04:57:00.331Z,101362.41
2024-04-16T04:59:28.057Z,101358.97
2024-04-16T05:01:56.359Z,101353.84
2024-04-16T05:04:24.072Z,101374.06
2024-04-16T05:06:51.969Z,101360.25
2024-04-16T05:09:19.552Z,101370.72
2024-04-16T05:11:47.233Z,101372.41
2024-04-16T05:14:14.936Z,101371.69
2024-04-16T05:16:42.624Z,101370.16
2024-04-16T05:19:10.312Z,101372.84
2024-04-16T05:21:38.070Z,101370.13
2024-04-16T05:24:05.733Z,101369.41
2024-04-16T05:26:33.574Z,101366.00
2024-04-16T05:29:01.140Z,101362.69
2024-04-16T05:31:28.799Z,101363.53
2024-04-16T05:33:56.674Z,101360.97
2024-04-16T05:36:25.616Z,101362.69
2024-04-16T05:38:53.306Z,101363.72
2024-04-16T05:41:20.985Z,101363.91
2024-04-16T05:43:49.019Z,101367.53
2024-04-16T05:46:16.770Z,101368.50
2024-04-16T05:48:44.668Z,101360.91
2024-04-16T05:51:12.238Z,101370.91
2024-04-16T05:53:39.862Z,101364.19
2024-04-16T05:56:07.799Z,101359.34
2024-04-16T05:58:35.486Z,101355.06
2024-04-16T06:01:07.606Z,101364.47
2024-04-16T06:03:35.580Z,101363.66
2024-04-16T06:06:03.223Z,101360.22
2024-04-16T06:08:30.990Z,101366.19
2024-04-16T06:10:58.690Z,101363.66
2024-04-16T06:13:26.404Z,101355.16
2024-04-16T06:15:54.109Z,101366.56
2024-04-16T06:18:21.930Z,101363.91
2024-04-16T06:20:49.674Z,101371.84
2024-04-16T06:23:18.011Z,101364.97
2024-04-16T06:25:45.714Z,101358.19
2024-04-16T06:28:13.585Z,101361.91
2024-04-16T06:30:41.310Z,101361.31
2024-04-16T06:33:09.772Z,101368.59
2024-04-16T06:35:37.770Z,101361.81
2024-04-16T06:38:05.694Z,101372.47
2024-04-16T06:40:33.401Z,101378.75
2024-04-16T06:43:01.597Z,101376.91
2024-04-16T06:45:29.362Z,101373.34
2024-04-16T06:47:57.111Z,101376.00
2024-04-16T06:50:24.949Z,101382.28
2024-04-16T06:52:56.109Z,101379.97
2024-04-16T06:55:24.271Z,101380.94
2024-04-16T06:57:54.090Z,101388.97
2024-04-16T07:00:21.945Z,101394.19
2024-04-16T07:02:50.382Z,101395.13
2024-04-16T07:05:18.357Z,101395.94
2024-04-16T07:07:46.742Z,101388.78
2024-04-16T07:10:14.668Z,101396.56
2024-04-16T07:12:42.615Z,101375.75
2024-04-16T07:15:10.309Z,101390.41
2024-04-16T07:17:39.810Z,101392.16
2024-04-16T07:20:07.916Z,101384.59
2024-04-16T07:22:35.680Z,101384.81
2024-04-16T07:25:03.459Z,101384.88
2024-04-16T07:27:31.100Z,101394.59
2024-04-16T07:29:58.807Z,101387.72
2024-04-16T07:32:26.676Z,101380.94
2024-04-16T07:34:56.745Z,101386.28
2024-04-16T07:37:26.250Z,101393.28
2024-04-16T07:39:53.874Z,101401.31
2024-04-16T07:42:22.634Z,101405.75
2024-04-16T07:45:15.207Z,101409.13
2024-04-16T07:47:43.082Z,101411.66
2024-04-16T07:50:11.090Z,101404.63
2024-04-16T07:52:38.981Z,101402.97
2024-04-16T07:55:06.968Z,101403.09
2024-04-16T07:57:34.767Z,101401.56
2024-04-16T08:00:02.658Z,101403.59
2024-04-16T08:02:39.411Z,101406.72
2024-04-16T08:05:08.146Z,101404.53
2024-04-16T08:07:36.429Z,101403.09
2024-04-16T08:10:05.005Z,101398.88
2024-04-16T08:12:32.942Z,101400.78
2024-04-16T08:15:01.337Z,101402.56
2024-04-16T08:17:29.237Z,101402.59
2024-04-16T08:19:58.020Z,101392.03
2024-04-16T08:22:25.750Z,101393.75
2024-04-16T08:24:54.428Z,101397.16
2024-04-16T08:27:23.892Z,101403.34
2024-04-16T08:29:53.210Z,101412.06
2024-04-16T08:32:20.889Z,101405.03
2024-04-16T08:34:49.458Z,101413.78
2024-04-16T08:37:17.384Z,101406.78
2024-04-16T08:39:45.094Z,101409.47
2024-04-16T08:42:14.833Z,101406.03
2024-04-16T08:44:42.890Z,101414.00
2024-04-16T08:47:12.076Z,101409.69
2024-04-16T08:49:43.406Z,101416.84
2024-04-16T08:52:12.531Z,101415.19
2024-04-16T08:54:41.758Z,101416.94
2024-04-16T08:57:09.470Z,101430.13
2024-04-16T08:59:37.109Z,101431.88
2024-04-16T09:02:04.967Z,101440.59
2024-04-16T09:04:38.421Z,101429.19
2024-04-16T09:07:08.932Z,101430.94
2024-04-16T09:09:37.039Z,101424.84
2024-04-16T09:12:05.083Z,101420.44
2024-04-16T09:14:33.034Z,101417.81
2024-04-16T09:17:03.022Z,101416.94
2024-04-16T09:19:30.840Z,101432.75
2024-04-16T09:22:01.381Z,101431.00
2024-04-16T09:24:28.992Z,101417.69
2024-04-16T09:27:00.860Z,101417.50
2024-04-16T09:29:29.028Z,101422.53
2024-04-16T09:32:04.164Z,101425.50
2024-04-16T09:34:32.952Z,101427.66
2024-04-16T09:37:01.097Z,101436.88
2024-04-16T09:39:29.548Z,101426.84
2024-04-16T09:42:00.099Z,101427.03
2024-04-16T09:44:31.924Z,101424.19
2024-04-16T09:47:01.246Z,101437.84
2024-04-16T09:49:36.601Z,101435.94
2024-04-16T09:52:10.949Z,101435.56
2024-04-16T09:54:41.800Z,101436.63
2024-04-16T09:57:11.499Z,101429.72
2024-04-16T09:59:40.218Z,101428.84
2024-04-16T10:02:11.234Z,101427.25
2024-04-16T10:04:39.161Z,101427.47
2024-04-16T10:07:07.567Z,101424.25
2024-04-16T10:09:35.630Z,101418.78
2024-04-16T10:12:04.002Z,101418.22
2024-04-16T10:14:31.717Z,101411.44
2024-04-16T10:16:59.419Z,101414.19
2024-04-16T10:19:30.411Z,101414.69
2024-04-16T10:22:05.070Z,101418.16
2024-04-16T10:24:32.789Z,101411.44
2024-04-16T10:27:00.797Z,101402.78
2024-04-16T10:29:28.638Z,101402.59
2024-04-16T10:31:56.445Z,101391.56
2024-04-16T10:34:28.554Z,101391.94
2024-04-16T10:36:59.912Z,101392.72
2024-04-16T10:39:33.691Z,101403.13
2024-04-16T10:42:04.007Z,101402.72
2024-04-16T10:44:34.697Z,101406.50
2024-04-16T10:47:02.982Z,101401.38
2024-04-16T10:49:30.703Z,101408.00
2024-04-16T10:51:58.402Z,101417.13
2024-04-16T10:54:26.044Z,101406.00
2024-04-16T10:56:53.866Z,101403.53
2024-04-16T10:59:21.876Z,101407.16
2024-04-16T11:01:49.579Z,101400.13
2024-04-16T11:04:20.348Z,101394.84
2024-04-16T11:06:49.029Z,101387.75
2024-04-16T11:09:17.502Z,101379.63
2024-04-16T11:11:45.656Z,101373.13
2024-04-16T11:14:14.511Z,101368.41
2024-04-16T11:16:43.399Z,101366.63
2024-04-16T11:19:11.625Z,101369.91
2024-04-16T11:21:40.573Z,101367.06
2024-04-16T11:24:09.510Z,101375.25
2024-04-16T11:26:40.072Z,101377.97
2024-04-16T11:29:07.846Z,101380.97
2024-04-16T11:31:35.645Z,101376.06
2024-04-16T11:34:04.141Z,101382.47
2024-04-16T11:36:32.545Z,101372.06
2024-04-16T11:39:00.250Z,101372.03
2024-04-16T11:41:30.730Z,101380.63
2024-04-16T11:43:58.602Z,101361.97
2024-04-16T11:46:26.504Z,101367.81
2024-04-16T11:48:55.978Z,101360.56
2024-04-16T11:51:23.590Z,101366.66
2024-04-16T11:53:51.270Z,101346.13
2024-04-16T11:56:18.919Z,101341.31
2024-04-16T11:58:46.643Z,101343.56
2024-04-16T12:01:14.414Z,101342.75
2024-04-16T12:03:42.229Z,101343.81
2024-04-16T12:06:09.922Z,101356.56
2024-04-16T12:08:37.663Z,101350.16
2024-04-16T12:11:05.720Z,101339.91
2024-04-16T12:13:33.484Z,101338.34
2024-04-16T12:16:01.637Z,101354.44
2024-04-16T12:18:29.418Z,101347.53
2024-04-16T12:20:57.053Z,101355.47
2024-04-16T12:23:24.826Z,101350.25
2024-04-16T12:25:52.965Z,101366.97
2024-04-16T12:28:21.676Z,101361.69
2024-04-16T12:30:49.551Z,101342.38
2024-04-16T12:33:18.543Z,101344.84
2024-04-16T12:35:46.288Z,101345.72
2024-04-16T12:38:13.911Z,101341.34
2024-04-16T12:40:41.690Z,101336.91
2024-04-16T12:43:09.965Z,101337.75
2024-04-16T12:45:37.894Z,101334.22
2024-04-16T12:48:06.167Z,101343.03
2024-04-16T12:50:35.829Z,101338.59
2024-04-16T12:53:03.486Z,101326.19
2024-04-16T12:55:31.777Z,101316.38
2024-04-16T12:57:59.439Z,101317.94
2024-04-16T13:00:27.135Z,101309.78
2024-04-16T13:02:55.581Z,101318.44
2024-04-16T13:05:23.816Z,101303.34
2024-04-16T13:07:51.728Z,101305.09
2024-04-16T13:10:19.717Z,101302.47
2024-04-16T13:12:47.461Z,101303.41
2024-04-16T13:15:15.089Z,101320.38
2024-04-16T13:17:42.919Z,101320.63
2024-04-16T13:20:12.361Z,101318.09
2024-04-16T13:22:40.285Z,101311.97
2024-04-16T13:25:08.606Z,101311.97
2024-04-16T13:27:36.226Z,101306.69
2024-04-16T13:30:04.269Z,101305.84
2024-04-16T13:32:32.090Z,101298.88
2024-04-16T13:35:00.669Z,101288.41
2024-04-16T13:37:28.828Z,101303.38
2024-04-16T13:39:56.587Z,101302.53
2024-04-16T13:42:24.351Z,101310.34
2024-04-16T13:44:52.063Z,101312.03
2024-04-16T13:47:20.236Z,101320.88
2024-04-16T13:49:47.885Z,101322.75
2024-04-16T13:52:15.801Z,101334.31
2024-04-16T13:54:43.462Z,101332.72
2024-04-16T13:57:13.108Z,101336.22
2024-04-16T13:59:43.475Z,101338.00
2024-04-16T14:02:11.169Z,101331.00
2024-04-16T14:04:39.095Z,101327.47
2024-04-16T14:07:06.788Z,101321.25
2024-04-16T14:09:34.467Z,101334.44
2024-04-16T14:12:02.371Z,101325.59
2024-04-16T14:14:30.094Z,101322.94
2024-04-16T14:16:58.178Z,101317.63
2024-04-16T14:19:26.514Z,101311.50
2024-04-16T14:21:57.682Z,101315.09
2024-04-16T14:24:28.521Z,101302.00
2024-04-16T14:26:56.166Z,101306.44
2024-04-16T14:29:24.874Z,101313.50
2024-04-16T14:31:52.590Z,101309.09
2024-04-16T14:34:20.885Z,101307.34
2024-04-16T14:36:48.925Z,101302.97
2024-04-16T14:39:16.766Z,101292.44
2024-04-16T14:41:45.010Z,101281.88
2024-04-16T14:44:12.610Z,101277.41
2024-04-16T14:46:40.358Z,101282.59
2024-04-16T14:49:08.028Z,101289.69
2024-04-16T14:51:35.757Z,101289.75
2024-04-16T14:54:03.525Z,101301.16
2024-04-16T14:56:31.473Z,101292.38
2024-04-16T14:58:59.205Z,101291.47
2024-04-16T15:01:26.997Z,101281.81
2024-04-16T15:03:55.035Z,101286.25
2024-04-16T15:06:22.794Z,101289.78
2024-04-16T15:08:50.518Z,101287.19
2024-04-16T15:11:18.415Z,101284.56
2024-04-16T15:13:48.324Z,101271.41
2024-04-16T15:16:16.548Z,101273.13
2024-04-16T15:18:44.286Z,101279.25
2024-04-16T15:21:12.363Z,101281.00
2024-04-16T15:23:40.800Z,101284.53
2024-04-16T15:26:08.598Z,101303.81
2024-04-16T15:28:38.036Z,101303.78
2024-04-16T15:31:06.212Z,101302.03
2024-04-16T15:33:33.883Z,101300.25
2024-04-16T15:36:01.662Z,101292.34
2024-04-16T15:38:29.365Z,101284.50
2024-04-16T15:40:57.151Z,101291.50
2024-04-16T15:43:24.857Z,101281.00
2024-04-16T15:45:52.595Z,101284.50
2024-04-16T15:48:21.355Z,101284.47
2024-04-16T15:50:52.514Z,101272.19
2024-04-16T15:53:20.723Z,101285.28
2024-04-16T15:55:51.515Z,101279.19
2024-04-16T15:58:21.687Z,101288.78
2024-04-16T16:00:49.436Z,101278.28
2024-04-16T16:03:17.244Z,101281.81
2024-04-16T16:05:48.476Z,101275.69
2024-04-16T16:08:16.213Z,101280.91
2024-04-16T16:10:44.055Z,101274.75
2024-04-16T16:13:11.951Z,101274.75
2024-04-16T16:15:39.546Z,101262.50
2024-04-16T16:18:07.547Z,101259.00
2024-04-16T16:20:36.151Z,101259.88
2024-04-16T16:23:05.071Z,101263.44
2024-04-16T16:25:33.535Z,101264.31
2024-04-16T16:28:01.456Z,101255.56
2024-04-16T16:30:29.128Z,101261.69
2024-04-16T16:32:56.921Z,101267.81
2024-04-16T16:35:24.660Z,101265.19
2024-04-16T16:37:52.387Z,101266.94
2024-04-16T16:40:20.197Z,101268.69
2024-04-16T16:42:47.962Z,101277.44
2024-04-16T16:45:15.695Z,101266.94
2024-04-16T16:47:43.494Z,101268.66
2024-04-16T16:50:11.155Z,101273.00
2024-04-16T16:52:39.828Z,101262.53
2024-04-16T16:55:09.101Z,101261.69
2024-04-16T16:57:37.022Z,101267.81
2024-04-16T17:00:05.266Z,101266.94
2024-04-16T17:02:32.968Z,101271.38
2024-04-16T17:05:01.007Z,101274.88
2024-04-16T17:07:28.697Z,101276.63
2024-04-16T17:09:56.395Z,101269.63
2024-04-16T17:12:25.834Z,101265.19
2024-04-16T17:14:55.375Z,101271.31
2024-04-16T17:17:23.073Z,101280.06
2024-04-16T17:19:51.532Z,101280.94
2024-04-16T17:22:19.242Z,101280.91
2024-04-16T17:24:49.180Z,101274.75
2024-04-16T17:27:18.136Z,101273.00
2024-04-16T17:29:47.196Z,101269.44
2024-04-16T17:32:16.021Z,101274.66
2024-04-16T17:34:43.666Z,101273.75
2024-04-16T17:37:11.327Z,101275.44
2024-04-16T17:39:38.890Z,101275.34
2024-04-16T17:42:06.594Z,101270.94
2024-04-16T17:44:34.435Z,101270.94
2024-04-16T17:47:06.108Z,101274.28
2024-04-16T17:49:35.039Z,101272.53
2024-04-16T17:52:02.796Z,101274.22
2024-04-16T17:54:30.763Z,101275.91
2024-04-16T17:56:59.504Z,101276.69
2024-04-16T17:59:27.640Z,101278.47
2024-04-16T18:01:55.337Z,101276.69
2024-04-16T18:04:23.258Z,101278.34
2024-04-16T18:06:52.053Z,101275.81
2024-04-16T18:09:19.817Z,101278.34
2024-04-16T18:11:47.487Z,101288.69
2024-04-16T18:14:15.861Z,101294.63
2024-04-16T18:16:43.560Z,101291.25
2024-04-16T18:19:11.227Z,101286.81
2024-04-16T18:21:38.873Z,101296.38
2024-04-16T18:24:06.849Z,101286.66
2024-04-16T18:26:34.585Z,101294.50
2024-04-16T18:29:02.338Z,101293.63
2024-04-16T18:31:29.981Z,101297.13
2024-04-16T18:33:58.004Z,101303.19
2024-04-16T18:36:25.633Z,101304.72
2024-04-16T18:38:53.328Z,101306.44
2024-04-16T18:41:20.991Z,101311.56
2024-04-16T18:43:48.854Z,101310.72
2024-04-16T18:46:16.586Z,101312.44
2024-04-16T18:48:44.618Z,101309.59
2024-04-16T18:51:12.474Z,101317.50
2024-04-16T18:53:40.188Z,101315.63
2024-04-16T18:56:14.649Z,101314.38
2024-04-16T18:58:42.479Z,101316.13
2024-04-16T19:01:10.174Z,101310.03
2024-04-16T19:03:37.841Z,101311.53
2024-04-16T19:06:05.766Z,101319.47
2024-04-16T19:08:33.570Z,101323.66
2024-04-16T19:11:01.390Z,101332.16
2024-04-16T19:13:29.130Z,101335.47
2024-04-16T19:16:00.505Z,101343.31
2024-04-16T19:18:29.347Z,101340.41
2024-04-16T19:20:57.258Z,101350.84
2024-04-16T19:23:26.758Z,101349.91
2024-04-16T19:25:55.472Z,101356.00
2024-04-16T19:28:27.028Z,101358.69
2024-04-16T19:30:55.331Z,101356.16
2024-04-16T19:33:23.152Z,101362.34
2024-04-16T19:35:50.795Z,101362.13
2024-04-16T19:38:18.515Z,101366.31
2024-04-16T19:40:46.354Z,101363.78
2024-04-16T19:43:14.029Z,101366.31
2024-04-16T19:45:41.751Z,101363.56
2024-04-16T19:48:11.368Z,101357.19
2024-04-16T19:50:40.732Z,101352.69
2024-04-16T19:53:08.516Z,101357.97
2024-04-16T19:55:36.265Z,101355.38
2024-04-16T19:58:03.969Z,101359.81
2024-04-16T20:00:33.095Z,101364.00
2024-04-16T20:03:00.974Z,101371.03
2024-04-16T20:05:29.647Z,101375.34
2024-04-16T20:07:57.389Z,101381.25
2024-04-16T20:10:25.164Z,101378.50
2024-04-16T20:12:52.856Z,101370.50
2024-04-16T20:15:21.226Z,101377.53
2024-04-16T20:17:48.878Z,101381.88
2024-04-16T20:20:16.752Z,101386.19
2024-04-16T20:22:44.538Z,101393.13
2024-04-16T20:25:18.833Z,101399.38
2024-04-16T20:27:47.043Z,101394.22
2024-04-16T20:30:14.688Z,101395.75
2024-04-16T20:32:42.535Z,101391.31
2024-04-16T20:35:10.304Z,101400.78
2024-04-16T20:37:38.633Z,101408.75
2024-04-16T20:40:07.488Z,101407.75
2024-04-16T20:42:35.351Z,101407.78
2024-04-16T20:45:03.022Z,101406.00
2024-04-16T20:47:30.722Z,101408.59
2024-04-16T20:49:58.419Z,101404.97
2024-04-16T20:52:26.360Z,101405.75
2024-04-16T20:54:54.045Z,101401.63
2024-04-16T20:57:21.829Z,101400.50
2024-04-16T20:59:49.454Z,101403.88
2024-04-16T21:02:17.737Z,101404.59
2024-04-16T21:04:45.872Z,101410.88
2024-04-16T21:07:13.600Z,101403.84
2024-04-16T21:09:41.231Z,101409.00
2024-04-16T21:12:09.467Z,101404.72
2024-04-16T21:14:37.105Z,101412.44
2024-04-16T21:17:04.872Z,101414.97
2024-04-16T21:19:32.875Z,101411.28
2024-04-16T21:22:00.943Z,101413.91
2024-04-16T21:24:28.503Z,101415.63
2024-04-16T21:26:56.195Z,101412.94
2024-04-16T21:29:23.864Z,101409.38
2024-04-16T21:31:51.793Z,101412.91
2024-04-16T21:34:19.619Z,101409.31
2024-04-16T21:36:47.252Z,101411.03
2024-04-16T21:39:14.797Z,101417.13
2024-04-16T21:41:42.449Z,101417.25
2024-04-16T21:44:10.096Z,101413.81
2024-04-16T21:46:38.288Z,101412.97
2024-04-16T21:49:06.243Z,101407.88
2024-04-16T21:51:34.007Z,101426.13
2024-04-16T21:54:01.624Z,101420.03
2024-04-16T21:56:32.528Z,101428.75
2024-04-16T21:59:01.244Z,101426.09
2024-04-16T22:01:29.631Z,101431.31
2024-04-16T22:03:57.398Z,101431.31
2024-04-16T22:06:25.612Z,101435.75
2024-04-16T22:08:53.576Z,101445.34
2024-04-16T22:11:21.274Z,101438.16
2024-04-16T22:13:48.986Z,101434.59
2024-04-16T22:16:16.649Z,101438.06
2024-04-16T22:18:44.350Z,101447.47
2024-04-16T22:21:12.009Z,101446.41
2024-04-16T22:23:41.390Z,101443.81
2024-04-16T22:26:09.375Z,101438.53
2024-04-16T22:28:37.985Z,101437.53
2024-04-16T22:31:05.989Z,101450.63
2024-04-16T22:33:34.130Z,101440.22
2024-04-16T22:36:01.831Z,101444.53
2024-04-16T22:38:29.530Z,101447.78
2024-04-16T22:40:57.812Z,101445.88
2024-04-16T22:43:25.730Z,101443.31
2024-04-16T22:45:54.951Z,101450.13
2024-04-16T22:48:24.477Z,101449.28
2024-04-16T22:50:53.374Z,101450.63
2024-04-16T22:53:21.798Z,101448.78
2024-04-16T22:55:51.510Z,101446.25
2024-04-16T22:58:20.363Z,101443.53
2024-04-16T23:00:48.414Z,101446.97
2024-04-16T23:03:16.614Z,101447.88
2024-04-16T23:05:44.581Z,101447.81
2024-04-16T23:08:12.255Z,101449.44
2024-04-16T23:10:41.045Z,101446.84
2024-04-16T23:13:09.390Z,101441.63
2024-04-16T23:15:37.152Z,101445.69
2024-04-16T23:18:06.509Z,101447.31
2024-04-16T23:20:34.779Z,101448.22
2024-04-16T23:23:03.530Z,101445.50
2024-04-16T23:25:31.219Z,101444.00
2024-04-16T23:27:58.891Z,101450.84
2024-04-16T23:30:26.509Z,101448.78
2024-04-16T23:32:55.351Z,101449.59
2024-04-16T23:35:23.151Z,101438.19
2024-04-16T23:37:50.932Z,101448.63
2024-04-16T23:40:18.913Z,101444.97
2024-04-16T23:42:46.679Z,101442.28
2024-04-16T23:45:14.845Z,101446.56
2024-04-16T23:47:42.517Z,101445.72
2024-04-16T23:50:10.199Z,101441.38
2024-04-16T23:52:37.955Z,101444.00
2024-04-16T23:55:05.827Z,101443.19
2024-04-16T23:57:33.519Z,101449.28
